Time;durP1;ratioP1;P1;durP2;ratioP2;P2;SDS_P1;SDS_P2;PMS_P1;PMS_P2;Temp;Humidity;BMP_temperature;BMP_pressure;BME280_temperature;BME280_humidity;BME280_pressure;Samples;Min_cycle;Max_cycle;Signal;HPM_P1;HPM_P2
2023/08/05 00:08:42;;;;;;;1.37;0.80;;;;;;;;;;20977760;28;20231;-73
2023/08/05 00:18:44;;;;;;;1.30;0.57;;;;;;;;;;21022393;28;20279;-73
2023/08/05 00:28:46;;;;;;;1.10;0.60;;;;;;;;;;21035772;28;20614;-73
2023/08/05 00:38:48;;;;;;;0.90;0.60;;;;;;;;;;20995821;28;20215;-73
2023/08/05 00:48:53;;;;;;;2.27;0.60;;;19.50;99.90;;;;;;21019882;28;20211;-73
2023/08/05 00:58:55;;;;;;;0.40;0.40;;;;;;;;;;21035544;28;20689;-73
2023/08/05 01:08:57;;;;;;;1.00;0.50;;;19.20;99.90;;;;;;21035316;28;20285;-73
2023/08/05 01:19:00;;;;;;;1.27;0.60;;;;;;;;;;21034198;28;20308;-73
2023/08/05 01:29:04;;;;;;;1.00;0.50;;;;;;;;;;21018172;28;20230;-73
2023/08/05 01:39:06;;;;;;;1.47;0.73;;;;;;;;;;20820341;28;20222;-74
2023/08/05 01:49:08;;;;;;;0.93;0.60;;;;;;;;;;20885856;28;20532;-74
2023/08/05 01:59:10;;;;;;;1.13;0.60;;;;;;;;;;20895993;28;20231;-74
2023/08/05 02:09:11;;;;;;;0.50;0.50;;;;;;;;;;20879679;28;20188;-74
2023/08/05 02:19:13;;;;;;;1.07;0.70;;;;;;;;;;20878558;28;20284;-75
2023/08/05 02:29:15;;;;;;;0.63;0.50;;;;;;;;;;20862899;28;20280;-74
2023/08/05 02:39:17;;;;;;;0.63;0.47;;;;;;;;;;20855206;28;20226;-73
2023/08/05 02:49:19;;;;;;;0.83;0.50;;;;;;;;;;20897542;28;20222;-74
2023/08/05 02:59:21;;;;;;;0.97;0.67;;;;;;;;;;20875774;28;20229;-74
2023/08/05 03:09:22;;;;;;;0.90;0.70;;;;;;;;;;20893189;28;20222;-73
2023/08/05 03:19:24;;;;;;;0.60;0.40;;;;;;;;;;20891727;28;20226;-72
2023/08/05 03:29:28;;;;;;;0.87;0.60;;;;;;;;;;20889530;28;20234;-73
2023/08/05 03:39:30;;;;;;;1.27;0.67;;;;;;;;;;20868352;28;20226;-74
2023/08/05 03:49:32;;;;;;;2.00;0.87;;;;;;;;;;20907602;28;20218;-73
2023/08/05 03:59:34;;;;;;;1.50;0.90;;;;;;;;;;20864425;28;20301;-73
2023/08/05 04:09:36;;;;;;;1.37;0.83;;;;;;;;;;20846259;28;20206;-72
2023/08/05 04:19:38;;;;;;;2.30;0.80;;;;;;;;;;20903481;28;20238;-73
2023/08/05 04:29:41;;;;;;;0.93;0.77;;;;;;;;;;20902153;28;20209;-73
2023/08/05 04:39:43;;;;;;;1.70;0.80;;;;;;;;;;20883018;28;20238;-73
2023/08/05 04:49:45;;;;;;;0.93;0.80;;;;;;;;;;20902641;28;20209;-73
2023/08/05 04:59:47;;;;;;;2.13;0.90;;;17.40;99.90;;;;;;20883211;28;20229;-74
2023/08/05 05:09:49;;;;;;;1.93;0.80;;;;;;;;;;20900975;28;20711;-74
2023/08/05 05:19:51;;;;;;;1.03;0.70;;;;;;;;;;20862667;28;20746;-74
2023/08/05 05:29:57;;;;;;;2.77;0.80;;;;;;;;;;20871845;28;20376;-72
2023/08/05 05:39:59;;;;;;;1.53;1.00;;;;;;;;;;20864362;28;20280;-73
2023/08/05 05:50:00;;;;;;;1.53;0.93;;;;;;;;;;20838189;28;20643;-74
2023/08/05 06:00:04;;;;;;;2.60;1.10;;;;;;;;;;20809430;28;20227;-74
2023/08/05 06:10:15;;;;;;;2.60;0.90;;;;;;;;;;20884075;28;20272;-74
2023/08/05 06:20:16;;;;;;;0.80;0.70;;;;;;;;;;20864755;28;20276;-73
2023/08/05 06:30:18;;;;;;;1.30;0.80;;;;;;;;;;20857627;28;20301;-72
2023/08/05 06:40:20;;;;;;;2.13;1.00;;;;;;;;;;20871473;28;20288;-74
2023/08/05 06:50:21;;;;;;;1.47;0.90;;;;;;;;;;20877780;28;20650;-74
2023/08/05 07:00:23;;;;;;;3.63;0.90;;;;;;;;;;20908072;28;20214;-74
2023/08/05 07:10:26;;;;;;;2.77;1.20;;;;;;;;;;20854425;28;20222;-73
2023/08/05 07:20:27;;;;;;;1.17;0.90;;;;;;;;;;20897865;28;20219;-71
2023/08/05 07:30:33;;;;;;;2.03;1.20;;;;;;;;;;20880227;28;20757;-73
2023/08/05 07:40:36;;;;;;;1.70;0.83;;;;;;;;;;20744302;28;20216;-76
2023/08/05 07:50:38;;;;;;;2.27;1.20;;;;;;;;;;20771636;28;20217;-78
2023/08/05 08:00:40;;;;;;;1.30;0.90;;;;;;;;;;20715834;28;20280;-77
2023/08/05 08:10:41;;;;;;;1.77;1.03;;;;;;;;;;20767042;28;20298;-76
2023/08/05 08:20:48;;;;;;;3.97;0.90;;;;;;;;;;20774415;28;20187;-76
2023/08/05 08:30:59;;;;;;;1.47;0.97;;;;;;;;;;20779784;28;20268;-76
2023/08/05 08:41:03;;;;;;;0.93;0.60;;;;;;;;;;20772598;28;20298;-76
2023/08/05 08:51:06;;;;;;;3.90;1.07;;;;;;;;;;20813426;28;20271;-76
2023/08/05 09:01:07;;;;;;;0.70;0.60;;;20.80;99.90;;;;;;20784738;28;20214;-76
2023/08/05 09:11:09;;;;;;;1.23;0.73;;;;;;;;;;20746408;28;20220;-77
2023/08/05 09:21:11;;;;;;;0.80;0.50;;;;;;;;;;20769326;28;20234;-78
2023/08/05 09:31:14;;;;;;;0.70;0.50;;;21.80;99.90;;;;;;20753150;28;20223;-77
2023/08/05 09:41:27;;;;;;;0.83;0.47;;;;;;;;;;20766062;28;20211;-78
2023/08/05 09:51:28;;;;;;;1.33;0.70;;;;;;;;;;20732124;28;20217;-78
2023/08/05 10:01:31;;;;;;;1.33;0.80;;;;;;;;;;20730825;28;20232;-76
2023/08/05 10:11:34;;;;;;;2.60;0.60;;;22.50;99.90;;;;;;20774728;28;20225;-76
2023/08/05 10:21:42;;;;;;;0.63;0.40;;;22.50;99.90;;;;;;20747642;28;20221;-75
2023/08/05 10:31:47;;;;;;;0.93;0.50;;;22.80;99.90;;;;;;20802715;28;20664;-77
2023/08/05 10:41:49;;;;;;;0.82;0.50;;;;;;;;;;20809207;28;20221;-77
2023/08/05 10:51:52;;;;;;;0.55;0.40;;;;;;;;;;20807265;28;20306;-77
2023/08/05 11:01:55;;;;;;;0.82;0.43;;;;;;;;;;20838123;28;20355;-77
2023/08/05 11:11:56;;;;;;;0.63;0.40;;;;;;;;;;20787144;28;20279;-76
2023/08/05 11:21:58;;;;;;;1.08;0.50;;;;;;;;;;20776688;28;20271;-76
2023/08/05 11:31:59;;;;;;;0.80;0.50;;;;;;;;;;20814565;28;20287;-76
2023/08/05 11:42:01;;;;;;;0.98;0.50;;;;;;;;;;20814737;28;20213;-76
2023/08/05 11:52:10;;;;;;;0.57;0.40;;;21.90;99.90;;;;;;20797486;28;20234;-76
2023/08/05 12:02:13;;;;;;;0.75;0.50;;;;;;;;;;20791933;28;20201;-76
2023/08/05 12:12:18;;;;;;;0.98;0.73;;;21.70;99.90;;;;;;20763976;28;20212;-76
2023/08/05 12:22:20;;;;;;;1.55;0.63;;;;;;;;;;20799644;28;20236;-76
2023/08/05 12:32:22;;;;;;;0.63;0.40;;;;;;;;;;20817137;28;20220;-75
2023/08/05 12:42:24;;;;;;;0.60;0.50;;;;;;;;;;20775274;28;20789;-78
2023/08/05 12:52:26;;;;;;;1.35;0.65;;;22.50;99.90;;;;;;20785300;28;20281;-77
2023/08/05 13:02:28;;;;;;;1.13;0.60;;;;;;;;;;20760827;28;20244;-76
2023/08/05 13:12:29;;;;;;;1.20;0.60;;;;;;;;;;20803546;28;20275;-76
2023/08/05 13:22:31;;;;;;;0.73;0.50;;;;;;;;;;20821046;28;20761;-77
2023/08/05 13:32:32;;;;;;;1.27;0.47;;;;;;;;;;20802823;22;20225;-73
2023/08/05 13:42:34;;;;;;;1.00;0.50;;;;;;;;;;20888571;28;20226;-73
2023/08/05 13:52:36;;;;;;;0.40;0.40;;;;;;;;;;20894942;28;20244;-73
2023/08/05 14:02:39;;;;;;;2.03;0.40;;;;;;;;;;20894837;28;20224;-73
2023/08/05 14:12:41;;;;;;;0.43;0.32;;;;;;;;;;20894301;28;20281;-73
2023/08/05 14:22:42;;;;;;;1.83;0.40;;;;;;;;;;20894497;28;20228;-74
2023/08/05 14:32:44;;;;;;;1.88;0.50;;;;;;;;;;20852247;28;20298;-72
2023/08/05 14:42:46;;;;;;;0.52;0.40;;;;;;;;;;20861823;28;20698;-73
2023/08/05 14:52:47;;;;;;;1.00;0.40;;;23.40;99.90;;;;;;20906886;28;20801;-72
2023/08/05 15:02:51;;;;;;;1.92;0.47;;;;;;;;;;20908074;28;20603;-74
2023/08/05 15:12:53;;;;;;;1.85;0.57;;;;;;;;;;20906836;28;20340;-73
2023/08/05 15:22:55;;;;;;;4.97;0.70;;;;;;;;;;20888573;28;20216;-73
2023/08/05 15:32:56;;;;;;;0.45;0.38;;;;;;;;;;20904982;28;20240;-72
2023/08/05 15:42:58;;;;;;;0.77;0.50;;;;;;;;;;20895622;28;20250;-74
2023/08/05 15:53:00;;;;;;;2.53;0.60;;;;;;;;;;20902630;28;20710;-73
2023/08/05 16:03:01;;;;;;;0.77;0.45;;;;;;;;;;20856522;28;20220;-73
2023/08/05 16:13:03;;;;;;;0.80;0.60;;;;;;;;;;20902490;28;20291;-73
2023/08/05 16:23:05;;;;;;;0.70;0.50;;;;;;;;;;20882997;28;20292;-72
2023/08/05 16:33:07;;;;;;;1.83;0.65;;;;;;;;;;20830614;28;20235;-72
2023/08/05 16:43:08;;;;;;;1.00;0.50;;;;;;;;;;20826716;28;20214;-73
2023/08/05 16:53:10;;;;;;;0.70;0.50;;;;;;;;;;20897734;28;20303;-73
2023/08/05 17:03:12;;;;;;;0.80;0.60;;;;;;;;;;20870203;28;20220;-73
2023/08/05 17:13:13;;;;;;;1.73;0.50;;;;;;;;;;20855707;28;20280;-72
2023/08/05 17:23:15;;;;;;;1.13;0.70;;;;;;;;;;20896558;28;20734;-74
2023/08/05 17:33:17;;;;;;;0.85;0.60;;;;;;;;;;20897232;28;20271;-72
2023/08/05 17:43:19;;;;;;;0.60;0.57;;;;;;;;;;20887887;28;20241;-72
2023/08/05 17:53:20;;;;;;;0.95;0.50;;;;;;;;;;20894819;28;20279;-74
2023/08/05 18:03:22;;;;;;;1.08;0.50;;;;;;;;;;20876868;28;20262;-74
2023/08/05 18:13:23;;;;;;;0.93;0.63;;;;;;;;;;20893677;28;20284;-74
2023/08/05 18:23:25;;;;;;;0.80;0.50;;;;;;;;;;20882106;28;20218;-75
2023/08/05 18:33:27;;;;;;;0.40;0.30;;;;;;;;;;20878906;28;20378;-74
2023/08/05 18:43:29;;;;;;;0.40;0.40;;;;;;;;;;20900622;28;20242;-74
2023/08/05 18:53:30;;;;;;;0.82;0.50;;;;;;;;;;20882751;28;20289;-71
2023/08/05 19:03:34;;;;;;;0.75;0.52;;;;;;;;;;20872663;28;20237;-74
2023/08/05 19:13:35;;;;;;;0.75;0.50;;;;;;;;;;20885823;28;20228;-72
2023/08/05 19:23:37;;;;;;;0.88;0.50;;;;;;;;;;20886078;28;20224;-72
2023/08/05 19:33:40;;;;;;;0.97;0.50;;;;;;;;;;20883443;22;20228;-73
2023/08/05 19:43:42;;;;;;;0.88;0.55;;;;;;;;;;20829208;28;20281;-73
2023/08/05 19:53:46;;;;;;;0.60;0.40;;;;;;;;;;20812181;28;20470;-72
2023/08/05 20:03:47;;;;;;;0.70;0.50;;;;;;;;;;20825082;28;20218;-73
2023/08/05 20:13:49;;;;;;;0.97;0.60;;;;;;;;;;20850688;28;20275;-72
2023/08/05 20:23:52;;;;;;;0.67;0.40;;;;;;;;;;20866381;28;20235;-73
2023/08/05 20:33:54;;;;;;;0.50;0.40;;;21.10;99.90;;;;;;20843184;28;20715;-73
2023/08/05 20:43:56;;;;;;;0.40;0.40;;;;;;;;;;20828184;28;20786;-72
2023/08/05 20:53:59;;;;;;;0.97;0.60;;;;;;;;;;20858709;28;20237;-72
2023/08/05 21:04:00;;;;;;;0.50;0.40;;;;;;;;;;20826857;28;20776;-71
2023/08/05 21:14:02;;;;;;;0.60;0.40;;;;;;;;;;20839439;28;20585;-72
2023/08/05 21:24:04;;;;;;;1.77;0.50;;;;;;;;;;20784285;28;20700;-72
2023/08/05 21:34:06;;;;;;;0.80;0.50;;;;;;;;;;20839389;28;20280;-72
2023/08/05 21:44:08;;;;;;;1.03;0.53;;;;;;;;;;20843488;28;20270;-72
2023/08/05 21:54:10;;;;;;;0.63;0.60;;;;;;;;;;20837335;28;20268;-72
2023/08/05 22:04:12;;;;;;;1.27;0.50;;;;;;;;;;20827905;28;20227;-72
2023/08/05 22:14:14;;;;;;;0.70;0.60;;;;;;;;;;20881552;28;20263;-72
2023/08/05 22:24:16;;;;;;;0.57;0.50;;;;;;;;;;20822272;28;20269;-72
2023/08/05 22:34:18;;;;;;;0.80;0.50;;;;;;;;;;20864720;28;20300;-72
2023/08/05 22:44:19;;;;;;;0.80;0.53;;;;;;;;;;20838990;28;20239;-72
2023/08/05 22:54:21;;;;;;;0.77;0.60;;;;;;;;;;20847332;28;20224;-72
2023/08/05 23:04:25;;;;;;;1.10;0.63;;;;;;;;;;20826336;28;20282;-73
2023/08/05 23:14:27;;;;;;;1.00;0.70;;;;;;;;;;20835334;28;20702;-72
2023/08/05 23:24:29;;;;;;;1.47;0.70;;;;;;;;;;20806676;28;20217;-73
2023/08/05 23:34:31;;;;;;;0.60;0.50;;;;;;;;;;20849849;28;20255;-73
2023/08/05 23:44:32;;;;;;;1.87;0.73;;;;;;;;;;20833541;28;20210;-73
2023/08/05 23:54:34;;;;;;;0.80;0.60;;;;;;;;;;20828699;28;20254;-73
